createdAt,value
2023-01-11T00:01:22.707Z,96746.47
2023-01-11T00:02:57.231Z,96746.97
2023-01-11T00:04:30.533Z,96749.09
2023-01-11T00:06:02.460Z,96750.09
2023-01-11T00:07:34.177Z,96751.66
2023-01-11T00:09:05.802Z,96751.47
2023-01-11T00:10:37.463Z,96744.22
2023-01-11T00:12:12.492Z,96753.41
2023-01-11T00:13:45.397Z,96746.84
2023-01-11T00:15:17.028Z,96755.25
2023-01-11T00:16:50.206Z,96750.09
2023-01-11T00:18:21.763Z,96751.66
2023-01-11T00:19:53.732Z,96748.63
2023-01-11T00:21:26.742Z,96753.31
2023-01-11T00:22:58.417Z,96747.72
2023-01-11T00:24:30.028Z,96747.53
2023-01-11T00:26:02.583Z,96751.25
2023-01-11T00:27:34.160Z,96749.69
2023-01-11T00:29:05.763Z,96745.50
2023-01-11T00:30:37.399Z,96747.66
2023-01-11T00:32:10.323Z,96748.72
2023-01-11T00:33:41.898Z,96747.34
2023-01-11T00:35:13.528Z,96751.44
2023-01-11T00:36:45.087Z,96748.31
2023-01-11T00:38:36.601Z,96750.38
2023-01-11T00:40:09.185Z,96755.69
2023-01-11T00:41:59.783Z,96740.69
2023-01-11T00:43:49.908Z,96740.09
2023-01-11T00:45:40.241Z,96738.84
2023-01-11T00:47:33.259Z,96739.91
2023-01-11T00:49:04.871Z,96744.38
2023-01-11T00:50:38.345Z,96735.91
2023-01-11T00:52:10.223Z,96739.50
2023-01-11T00:53:41.832Z,96733.34
2023-01-11T00:55:13.431Z,96745.38
2023-01-11T00:56:45.111Z,96741.25
2023-01-11T00:58:16.717Z,96735.97
2023-01-11T00:59:48.331Z,96735.97
2023-01-11T01:01:19.930Z,96735.50
2023-01-11T01:02:52.964Z,96740.47
2023-01-11T01:04:24.813Z,96739.78
2023-01-11T01:05:56.441Z,96735.16
2023-01-11T01:07:28.027Z,96742.72
2023-01-11T01:09:00.172Z,96736.47
2023-01-11T01:10:31.754Z,96731.28
2023-01-11T01:12:04.597Z,96740.59
2023-01-11T01:13:54.792Z,96739.59
2023-01-11T01:15:26.458Z,96743.41
2023-01-11T01:16:59.148Z,96742.16
2023-01-11T01:18:32.130Z,96739.03
2023-01-11T01:20:04.541Z,96732.56
2023-01-11T01:21:37.354Z,96736.47
2023-01-11T01:23:08.937Z,96736.28
2023-01-11T01:24:40.711Z,96740.47
2023-01-11T01:26:12.312Z,96742.63
2023-01-11T01:27:43.871Z,96729.44
2023-01-11T01:29:15.928Z,96732.84
2023-01-11T01:30:50.236Z,96731.47
2023-01-11T01:32:21.806Z,96742.16
2023-01-11T01:33:54.753Z,96741.25
2023-01-11T01:35:26.331Z,96733.63
2023-01-11T01:36:57.910Z,96727.38
2023-01-11T01:38:29.522Z,96735.50
2023-01-11T01:40:01.085Z,96729.53
2023-01-11T01:41:32.757Z,96735.91
2023-01-11T01:43:05.302Z,96731.88
2023-01-11T01:45:06.159Z,96724.81
2023-01-11T01:46:37.803Z,96730.22
2023-01-11T01:48:10.245Z,96726.78
2023-01-11T01:49:43.219Z,96725.13
2023-01-11T01:51:17.596Z,96727.16
2023-01-11T01:52:50.282Z,96724.81
2023-01-11T01:54:23.282Z,96713.38
2023-01-11T01:55:56.158Z,96721.41
2023-01-11T01:57:29.053Z,96711.72
2023-01-11T01:59:02.249Z,96713.88
2023-01-11T02:00:33.913Z,96707.22
2023-01-11T02:02:05.499Z,96702.72
2023-01-11T02:03:37.101Z,96699.88
2023-01-11T02:05:10.441Z,96710.53
2023-01-11T02:06:42.104Z,96704.63
2023-01-11T02:08:17.167Z,96714.25
2023-01-11T02:09:50.584Z,96709.38
2023-01-11T02:11:31.196Z,96703.63
2023-01-11T02:13:05.461Z,96706.53
2023-01-11T02:14:37.337Z,96700.59
2023-01-11T02:16:08.995Z,96694.47
2023-01-11T02:17:40.645Z,96696.91
2023-01-11T02:19:17.326Z,96689.75
2023-01-11T02:20:58.341Z,96685.91
2023-01-11T02:23:03.178Z,96689.63
2023-01-11T02:24:55.999Z,96688.69
2023-01-11T02:26:47.808Z,96685.06
2023-01-11T02:28:21.178Z,96689.88
2023-01-11T02:29:58.612Z,96691.56
2023-01-11T02:31:31.787Z,96687.84
2023-01-11T02:33:07.698Z,96687.81
2023-01-11T02:34:41.987Z,96687.69
2023-01-11T02:36:17.849Z,96686.50
2023-01-11T02:37:53.822Z,96686.75
2023-01-11T02:39:30.983Z,96682.09
2023-01-11T02:41:05.358Z,96678.13
2023-01-11T02:42:56.452Z,96672.16
2023-01-11T02:44:53.704Z,96673.50
2023-01-11T02:46:29.428Z,96669.00
2023-01-11T02:48:02.305Z,96659.31
2023-01-11T02:49:35.846Z,96662.00
2023-01-11T02:51:09.944Z,96657.84
2023-01-11T02:52:45.203Z,96662.50
2023-01-11T02:54:18.621Z,96654.34
2023-01-11T02:55:52.024Z,96654.75
2023-01-11T02:57:23.584Z,96657.63
2023-01-11T02:58:55.727Z,96649.41
2023-01-11T03:00:28.653Z,96648.75
2023-01-11T03:02:00.544Z,96642.69
2023-01-11T03:03:33.720Z,96644.34
2023-01-11T03:05:11.352Z,96632.09
2023-01-11T03:06:42.982Z,96630.34
2023-01-11T03:08:25.902Z,96630.75
2023-01-11T03:10:03.582Z,96630.91
2023-01-11T03:12:03.116Z,96630.63
2023-01-11T03:13:41.359Z,96626.72
2023-01-11T03:15:21.911Z,96628.97
2023-01-11T03:16:59.351Z,96622.78
2023-01-11T03:18:36.021Z,96621.63
2023-01-11T03:20:09.656Z,96621.88
2023-01-11T03:21:48.148Z,96615.63
2023-01-11T03:23:22.324Z,96619.97
2023-01-11T03:24:57.682Z,96612.03
2023-01-11T03:26:33.233Z,96612.38
2023-01-11T03:28:09.582Z,96602.91
2023-01-11T03:29:47.078Z,96616.84
2023-01-11T03:31:20.738Z,96613.72
2023-01-11T03:32:54.915Z,96618.59
2023-01-11T03:34:29.831Z,96612.22
2023-01-11T03:36:04.271Z,96602.72
2023-01-11T03:37:37.320Z,96609.22
2023-01-11T03:39:10.137Z,96613.06
2023-01-11T03:40:44.526Z,96610.81
2023-01-11T03:42:16.956Z,96607.34
2023-01-11T03:43:48.540Z,96609.69
2023-01-11T03:45:20.156Z,96612.41
2023-01-11T03:46:53.099Z,96611.81
2023-01-11T03:48:27.757Z,96611.44
2023-01-11T03:50:01.034Z,96599.44
2023-01-11T03:51:35.051Z,96591.25
2023-01-11T03:53:06.695Z,96597.25
2023-01-11T03:54:38.383Z,96596.72
2023-01-11T03:56:10.629Z,96592.22
2023-01-11T03:57:43.872Z,96600.38
2023-01-11T03:59:15.466Z,96592.81
2023-01-11T04:00:47.071Z,96591.97
2023-01-11T04:02:19.631Z,96584.50
2023-01-11T04:03:52.631Z,96591.78
2023-01-11T04:05:24.261Z,96583.66
2023-01-11T04:06:55.955Z,96583.66
2023-01-11T04:08:27.591Z,96579.84
2023-01-11T04:09:59.238Z,96583.25
2023-01-11T04:11:30.919Z,96581.03
2023-01-11T04:13:02.509Z,96580.34
2023-01-11T04:14:34.223Z,96588.66
2023-01-11T04:16:06.556Z,96581.03
2023-01-11T04:17:38.175Z,96576.88
2023-01-11T04:19:11.130Z,96574.06
2023-01-11T04:20:42.746Z,96569.94
2023-01-11T04:22:14.364Z,96559.25
2023-01-11T04:23:45.960Z,96560.56
2023-01-11T04:25:17.507Z,96561.44
2023-01-11T04:26:49.057Z,96557.94
2023-01-11T04:28:20.625Z,96563.28
2023-01-11T04:29:52.263Z,96560.13
2023-01-11T04:31:24.083Z,96551.19
2023-01-11T04:32:57.341Z,96552.28
2023-01-11T04:34:30.280Z,96561.78
2023-01-11T04:36:04.552Z,96559.69
2023-01-11T04:37:36.160Z,96560.31
2023-01-11T04:39:10.640Z,96554.84
2023-01-11T04:40:42.238Z,96571.63
2023-01-11T04:42:20.030Z,96563.63
2023-01-11T04:43:54.199Z,96566.66
2023-01-11T04:45:25.896Z,96554.06
2023-01-11T04:46:57.473Z,96565.97
2023-01-11T04:48:29.030Z,96566.34
2023-01-11T04:50:01.969Z,96564.78
2023-01-11T04:51:33.540Z,96569.47
2023-01-11T04:53:05.104Z,96563.25
2023-01-11T04:54:36.692Z,96558.94
2023-01-11T04:56:08.427Z,96561.88
2023-01-11T04:57:39.996Z,96571.25
2023-01-11T04:59:11.567Z,96567.53
2023-01-11T05:00:43.295Z,96556.50
2023-01-11T05:02:15.072Z,96556.41
2023-01-11T05:03:46.836Z,96568.13
2023-01-11T05:05:19.899Z,96557.94
2023-01-11T05:06:51.526Z,96560.78
2023-01-11T05:08:23.593Z,96558.16
2023-01-11T05:09:55.215Z,96561.66
2023-01-11T05:11:26.863Z,96565.19
2023-01-11T05:12:58.418Z,96562.44
2023-01-11T05:14:30.037Z,96554.34
2023-01-11T05:16:01.616Z,96555.44
2023-01-11T05:17:33.254Z,96560.78
2023-01-11T05:19:04.956Z,96544.88
2023-01-11T05:20:37.853Z,96547.31
2023-01-11T05:22:09.672Z,96560.88
2023-01-11T05:23:41.315Z,96556.91
2023-01-11T05:25:12.843Z,96555.38
2023-01-11T05:26:44.782Z,96559.16
2023-01-11T05:28:16.354Z,96555.59
2023-01-11T05:29:47.980Z,96552.69
2023-01-11T05:31:19.715Z,96544.28
2023-01-11T05:32:51.677Z,96535.97
2023-01-11T05:34:23.265Z,96539.00
2023-01-11T05:35:59.104Z,96541.94
2023-01-11T05:37:30.773Z,96540.38
2023-01-11T05:39:02.395Z,96545.47
2023-01-11T05:40:33.979Z,96542.91
2023-01-11T05:42:05.662Z,96542.13
2023-01-11T05:43:57.604Z,96545.53
2023-01-11T05:45:29.237Z,96539.88
2023-01-11T05:47:00.945Z,96534.69
2023-01-11T05:48:32.491Z,96536.22
2023-01-11T05:50:04.751Z,96531.06
2023-01-11T05:51:40.432Z,96529.19
2023-01-11T05:53:12.041Z,96535.47
2023-01-11T05:54:43.715Z,96534.44
2023-01-11T05:56:15.272Z,96534.16
2023-01-11T05:57:47.115Z,96536.59
2023-01-11T05:59:18.774Z,96535.28
2023-01-11T06:00:50.433Z,96530.13
2023-01-11T06:02:22.142Z,96528.69
2023-01-11T06:03:53.822Z,96531.72
2023-01-11T06:05:25.380Z,96525.00
2023-01-11T06:06:58.332Z,96523.84
2023-01-11T06:08:29.953Z,96526.47
2023-01-11T06:10:01.585Z,96533.84
2023-01-11T06:11:33.156Z,96529.47
2023-01-11T06:13:23.173Z,96536.97
2023-01-11T06:14:54.755Z,96526.69
2023-01-11T06:16:26.482Z,96538.31
2023-01-11T06:17:58.055Z,96538.19
2023-01-11T06:19:29.633Z,96544.97
2023-01-11T06:21:01.292Z,96537.56
2023-01-11T06:22:34.211Z,96540.69
2023-01-11T06:24:06.335Z,96541.84
2023-01-11T06:25:37.930Z,96540.13
2023-01-11T06:27:09.603Z,96542.63
2023-01-11T06:28:41.276Z,96541.75
2023-01-11T06:30:13.637Z,96531.78
2023-01-11T06:31:45.265Z,96532.69
2023-01-11T06:33:16.930Z,96524.28
2023-01-11T06:34:48.493Z,96526.84
2023-01-11T06:36:20.135Z,96521.06
2023-01-11T06:37:53.084Z,96524.00
2023-01-11T06:39:24.665Z,96530.63
2023-01-11T06:40:57.286Z,96528.97
2023-01-11T06:42:28.834Z,96526.63
2023-01-11T06:44:00.407Z,96529.84
2023-01-11T06:45:32.017Z,96533.00
2023-01-11T06:47:03.669Z,96531.25
2023-01-11T06:48:35.260Z,96522.97
2023-01-11T06:50:08.276Z,96528.38
2023-01-11T06:51:39.869Z,96533.66
2023-01-11T06:53:13.910Z,96531.72
2023-01-11T06:54:45.487Z,96532.94
2023-01-11T06:56:19.066Z,96532.88
2023-01-11T06:57:50.798Z,96531.81
2023-01-11T06:59:22.396Z,96534.44
2023-01-11T07:00:55.685Z,96529.34
2023-01-11T07:02:27.522Z,96534.03
2023-01-11T07:03:59.156Z,96533.22
2023-01-11T07:05:31.930Z,96525.13
2023-01-11T07:07:03.586Z,96533.84
2023-01-11T07:08:38.188Z,96534.16
2023-01-11T07:10:11.233Z,96536.06
2023-01-11T07:11:42.813Z,96526.25
2023-01-11T07:13:17.536Z,96525.84
2023-01-11T07:14:49.470Z,96529.84
2023-01-11T07:16:21.121Z,96519.59
2023-01-11T07:17:54.099Z,96526.25
2023-01-11T07:19:25.922Z,96528.19
2023-01-11T07:20:57.503Z,96522.19
2023-01-11T07:22:29.171Z,96522.28
2023-01-11T07:24:02.496Z,96526.91
2023-01-11T07:25:34.063Z,96526.22
2023-01-11T07:27:05.650Z,96524.28
2023-01-11T07:28:37.252Z,96522.56
2023-01-11T07:30:10.099Z,96521.53
2023-01-11T07:31:41.849Z,96517.34
2023-01-11T07:33:14.116Z,96524.97
2023-01-11T07:34:45.791Z,96514.41
2023-01-11T07:36:17.368Z,96517.16
2023-01-11T07:37:49.005Z,96516.34
2023-01-11T07:39:26.847Z,96511.06
2023-01-11T07:41:23.603Z,96510.97
2023-01-11T07:43:13.731Z,96510.06
2023-01-11T07:44:45.477Z,96504.91
2023-01-11T07:46:17.134Z,96505.09
2023-01-11T07:47:49.870Z,96502.91
2023-01-11T07:49:21.514Z,96507.63
2023-01-11T07:50:53.285Z,96511.41
2023-01-11T07:52:24.842Z,96513.88
2023-01-11T07:53:56.469Z,96516.16
2023-01-11T07:55:29.429Z,96508.47
2023-01-11T07:57:01.038Z,96500.69
2023-01-11T07:58:32.639Z,96509.31
2023-01-11T08:00:04.911Z,96501.66
2023-01-11T08:01:37.033Z,96503.69
2023-01-11T08:03:08.747Z,96507.09
2023-01-11T08:04:40.488Z,96502.56
2023-01-11T08:06:12.078Z,96490.44
2023-01-11T08:07:43.607Z,96490.00
2023-01-11T08:09:15.143Z,96482.91
2023-01-11T08:11:08.042Z,96485.28
2023-01-11T08:13:02.240Z,96490.41
2023-01-11T08:14:41.224Z,96480.78
2023-01-11T08:16:12.813Z,96477.34
2023-01-11T08:17:44.420Z,96492.56
2023-01-11T08:19:16.163Z,96484.00
2023-01-11T08:20:47.825Z,96484.31
2023-01-11T08:22:19.426Z,96481.63
2023-01-11T08:23:53.030Z,96483.00
2023-01-11T08:25:24.732Z,96486.28
2023-01-11T08:26:57.690Z,96478.81
2023-01-11T08:28:29.258Z,96481.34
2023-01-11T08:30:00.932Z,96485.19
2023-01-11T08:31:32.509Z,96490.94
2023-01-11T08:33:04.844Z,96484.88
2023-01-11T08:34:36.456Z,96483.94
2023-01-11T08:36:09.892Z,96486.41
2023-01-11T08:37:41.581Z,96498.38
2023-01-11T08:39:13.151Z,96494.94
2023-01-11T08:40:47.721Z,96506.78
2023-01-11T08:42:20.672Z,96501.78
2023-01-11T08:43:52.439Z,96497.44
2023-01-11T08:45:24.023Z,96498.69
2023-01-11T08:46:55.715Z,96504.59
2023-01-11T08:48:27.295Z,96514.56
2023-01-11T08:49:58.971Z,96506.97
2023-01-11T08:51:30.531Z,96513.97
2023-01-11T08:53:02.093Z,96503.59
2023-01-11T08:54:33.695Z,96515.44
2023-01-11T08:56:05.953Z,96513.91
2023-01-11T08:57:38.921Z,96511.56
2023-01-11T08:59:11.521Z,96511.56
2023-01-11T09:00:43.591Z,96517.66
2023-01-11T09:02:15.235Z,96521.38
2023-01-11T09:03:46.847Z,96525.75
2023-01-11T09:05:18.551Z,96520.59
2023-01-11T09:06:50.198Z,96525.59
2023-01-11T09:08:21.780Z,96517.19
2023-01-11T09:09:53.612Z,96525.59
2023-01-11T09:11:43.931Z,96532.63
2023-01-11T09:13:16.856Z,96527.97
2023-01-11T09:14:48.495Z,96532.81
2023-01-11T09:16:20.125Z,96529.06
2023-01-11T09:17:51.930Z,96524.09
2023-01-11T09:19:23.633Z,96524.88
2023-01-11T09:20:55.228Z,96526.28
2023-01-11T09:22:27.510Z,96522.09
2023-01-11T09:23:59.075Z,96517.72
2023-01-11T09:25:30.766Z,96514.75
2023-01-11T09:27:02.569Z,96512.91
2023-01-11T09:28:35.578Z,96514.59
2023-01-11T09:30:08.604Z,96518.34
2023-01-11T09:31:40.488Z,96523.03
2023-01-11T09:33:12.088Z,96518.81
2023-01-11T09:34:46.802Z,96518.34
2023-01-11T09:36:21.730Z,96531.59
2023-01-11T09:37:55.625Z,96523.34
2023-01-11T09:39:28.759Z,96534.28
2023-01-11T09:41:05.512Z,96533.81
2023-01-11T09:42:39.472Z,96532.72
2023-01-11T09:44:16.418Z,96539.56
2023-01-11T09:45:51.049Z,96534.91
2023-01-11T09:47:30.232Z,96535.84
2023-01-11T09:49:03.421Z,96536.63
2023-01-11T09:50:41.707Z,96523.38
2023-01-11T09:52:18.474Z,96520.09
2023-01-11T09:53:50.818Z,96523.84
2023-01-11T09:55:28.047Z,96521.34
2023-01-11T09:57:02.123Z,96519.94
2023-01-11T09:58:42.733Z,96516.38
2023-01-11T10:00:22.070Z,96514.19
2023-01-11T10:01:55.718Z,96507.94
2023-01-11T10:04:16.277Z,96500.16
2023-01-11T10:05:56.490Z,96502.34
2023-01-11T10:07:38.021Z,96493.13
2023-01-11T10:18:26.398Z,96498.44
2023-01-11T10:18:38.577Z,96488.63
2023-01-11T10:19:33.506Z,96484.09
2023-01-11T10:21:05.722Z,96496.56
2023-01-11T10:22:40.972Z,96487.53
2023-01-11T10:24:17.175Z,96496.25
2023-01-11T10:25:51.779Z,96490.59
2023-01-11T10:27:27.693Z,96489.81
2023-01-11T10:29:14.973Z,96485.28
2023-01-11T10:31:08.180Z,96475.78
2023-01-11T10:32:48.118Z,96475.50
2023-01-11T10:34:38.529Z,96461.41
2023-01-11T10:36:28.712Z,96459.22
2023-01-11T10:38:31.176Z,96462.97
2023-01-11T10:40:24.208Z,96456.97
2023-01-11T10:42:03.837Z,96458.31
2023-01-11T10:43:37.546Z,96459.72
2023-01-11T10:45:13.191Z,96455.50
2023-01-11T10:46:46.118Z,96458.13
2023-01-11T10:48:23.655Z,96458.69
2023-01-11T10:49:57.449Z,96457.53
2023-01-11T10:51:32.258Z,96453.34
2023-01-11T10:53:07.154Z,96454.88
2023-01-11T10:54:39.544Z,96466.75
2023-01-11T10:56:21.471Z,96470.22
2023-01-11T10:58:02.089Z,96469.91
2023-01-11T10:59:43.666Z,96471.00
2023-01-11T11:01:20.483Z,96461.34
2023-01-11T11:03:01.859Z,96467.44
2023-01-11T11:04:51.799Z,96466.75
2023-01-11T11:06:28.232Z,96468.81
2023-01-11T11:08:01.900Z,96467.69
2023-01-11T11:09:36.632Z,96465.56
2023-01-11T11:11:10.952Z,96463.09
2023-01-11T11:12:46.256Z,96458.63
2023-01-11T11:14:20.340Z,96458.81
2023-01-11T11:15:55.105Z,96457.31
2023-01-11T11:17:29.406Z,96454.88
2023-01-11T11:19:01.123Z,96462.56
2023-01-11T11:20:34.226Z,96450.72
2023-01-11T11:22:05.944Z,96453.69
2023-01-11T11:23:37.565Z,96448.09
2023-01-11T11:25:14.242Z,96454.78
2023-01-11T11:26:47.696Z,96453.84
2023-01-11T11:28:26.932Z,96457.91
2023-01-11T11:29:58.612Z,96449.66
2023-01-11T11:31:30.288Z,96449.22
2023-01-11T11:33:02.666Z,96453.09
2023-01-11T11:34:34.245Z,96457.16
2023-01-11T11:36:08.835Z,96448.25
2023-01-11T11:37:42.053Z,96447.16
2023-01-11T11:39:19.535Z,96440.47
2023-01-11T11:40:58.098Z,96450.28
2023-01-11T11:42:29.731Z,96453.56
2023-01-11T11:44:17.378Z,96446.53
2023-01-11T11:45:53.254Z,96433.47
2023-01-11T11:47:24.887Z,96432.38
2023-01-11T11:49:13.116Z,96432.72
2023-01-11T11:50:45.851Z,96432.25
2023-01-11T11:53:13.733Z,96428.66
2023-01-11T11:55:24.715Z,96423.50
2023-01-11T11:56:57.389Z,96430.38
2023-01-11T11:58:28.942Z,96427.88
2023-01-11T12:00:02.215Z,96427.88
2023-01-11T12:01:34.980Z,96430.38
2023-01-11T12:03:10.938Z,96423.84
2023-01-11T12:04:45.014Z,96425.38
2023-01-11T12:06:21.334Z,96425.69
2023-01-11T12:07:55.605Z,96419.78
2023-01-11T12:09:28.590Z,96426.47
2023-01-11T12:11:01.250Z,96425.47
2023-01-11T12:12:34.262Z,96417.22
2023-01-11T12:14:16.446Z,96415.34
2023-01-11T12:15:55.367Z,96410.00
2023-01-11T12:17:27.017Z,96409.38
2023-01-11T12:18:58.625Z,96406.84
2023-01-11T12:20:32.463Z,96404.97
2023-01-11T12:22:10.252Z,96405.28
2023-01-11T12:23:43.278Z,96401.06
2023-01-11T12:25:21.682Z,96393.53
2023-01-11T12:26:58.156Z,96396.44
2023-01-11T12:28:36.109Z,96396.13
2023-01-11T12:30:14.232Z,96400.16
2023-01-11T12:31:53.837Z,96395.47
2023-01-11T12:33:30.042Z,96399.22
2023-01-11T12:35:08.803Z,96397.94
2023-01-11T12:36:44.016Z,96386.88
2023-01-11T12:38:34.928Z,96398.59
2023-01-11T12:40:12.291Z,96403.25
2023-01-11T12:41:56.191Z,96400.16
2023-01-11T12:43:35.209Z,96387.63
2023-01-11T12:45:20.932Z,96394.34
2023-01-11T12:46:58.264Z,96390.75
2023-01-11T12:48:41.499Z,96389.31
2023-01-11T12:50:16.627Z,96402.72
2023-01-11T12:52:11.940Z,96391.66
2023-01-11T12:53:59.333Z,96391.66
2023-01-11T12:55:39.427Z,96395.41
2023-01-11T12:57:14.261Z,96398.38
2023-01-11T12:58:49.864Z,96399.81
2023-01-11T13:00:30.326Z,96393.00
2023-01-11T13:02:08.118Z,96397.88
2023-01-11T13:03:55.314Z,96391.97
2023-01-11T13:05:27.911Z,96401.28
2023-01-11T13:07:03.102Z,96391.47
2023-01-11T13:08:41.622Z,96396.97
2023-01-11T13:10:20.951Z,96400.19
2023-01-11T13:11:56.259Z,96389.56
2023-01-11T13:13:30.582Z,96389.84
2023-01-11T13:15:21.411Z,96388.94
2023-01-11T13:16:55.162Z,96383.69
2023-01-11T13:18:31.385Z,96387.69
2023-01-11T13:20:12.410Z,96382.84
2023-01-11T13:21:44.710Z,96393.47
2023-01-11T13:23:18.574Z,96391.00
2023-01-11T13:24:50.779Z,96397.47
2023-01-11T13:26:24.843Z,96394.38
2023-01-11T13:27:59.090Z,96394.56
2023-01-11T13:29:31.601Z,96400.19
2023-01-11T13:31:07.565Z,96391.25
2023-01-11T13:32:40.133Z,96400.00
2023-01-11T13:34:13.128Z,96410.03
2023-01-11T13:35:47.012Z,96405.81
2023-01-11T13:37:19.850Z,96408.59
2023-01-11T13:38:54.990Z,96411.84
2023-01-11T13:40:27.286Z,96410.47
2023-01-11T13:41:59.964Z,96404.06
2023-01-11T13:43:36.201Z,96410.94
2023-01-11T13:45:14.319Z,96402.53
2023-01-11T13:46:52.294Z,96409.91
2023-01-11T13:48:25.644Z,96419.09
2023-01-11T13:50:00.756Z,96419.22
2023-01-11T13:51:34.902Z,96418.00
2023-01-11T13:53:10.015Z,96415.97
2023-01-11T13:54:45.965Z,96427.69
2023-01-11T13:56:19.125Z,96418.63
2023-01-11T13:57:52.521Z,96419.59
2023-01-11T13:59:27.478Z,96424.13
2023-01-11T14:01:02.199Z,96421.16
2023-01-11T14:02:38.185Z,96423.34
2023-01-11T14:04:12.452Z,96418.50
2023-01-11T14:05:52.988Z,96422.38
2023-01-11T14:07:30.471Z,96429.56
2023-01-11T14:09:19.318Z,96433.66
2023-01-11T14:10:55.368Z,96433.31
2023-01-11T14:12:33.895Z,96445.03
2023-01-11T14:14:18.064Z,96442.38
2023-01-11T14:15:54.577Z,96443.81
2023-01-11T14:17:33.221Z,96439.59
2023-01-11T14:19:06.766Z,96449.09
2023-01-11T14:20:43.448Z,96450.22
2023-01-11T14:22:20.299Z,96450.97
2023-01-11T14:23:52.577Z,96448.00
2023-01-11T14:25:25.542Z,96463.59
2023-01-11T14:27:11.873Z,96458.88
2023-01-11T14:28:51.724Z,96460.75
2023-01-11T14:30:31.468Z,96461.72
2023-01-11T14:32:13.187Z,96466.72
2023-01-11T14:34:23.857Z,96468.41
2023-01-11T14:36:14.850Z,96471.84
2023-01-11T14:38:22.439Z,96467.63
2023-01-11T14:40:30.291Z,96475.28
2023-01-11T14:42:30.493Z,96471.50
2023-01-11T14:44:11.194Z,96470.75
2023-01-11T14:45:53.082Z,96485.56
2023-01-11T14:48:02.401Z,96481.66
2023-01-11T14:49:41.989Z,96482.78
2023-01-11T14:51:25.951Z,96480.91
2023-01-11T14:53:00.612Z,96479.59
2023-01-11T14:54:32.909Z,96484.31
2023-01-11T14:56:05.080Z,96484.00
2023-01-11T14:57:39.711Z,96472.16
2023-01-11T14:59:22.816Z,96477.72
2023-01-11T15:01:11.353Z,96479.28
2023-01-11T15:02:43.560Z,96482.13
2023-01-11T15:04:22.352Z,96482.13
2023-01-11T15:05:55.019Z,96491.19
2023-01-11T15:07:34.546Z,96490.41
2023-01-11T15:09:06.171Z,96496.03
2023-01-11T15:10:39.563Z,96489.63
2023-01-11T15:12:11.837Z,96493.06
2023-01-11T15:13:44.597Z,96490.28
2023-01-11T15:15:18.413Z,96502.13
2023-01-11T15:17:09.178Z,96498.69
2023-01-11T15:18:42.914Z,96496.22
2023-01-11T15:20:16.805Z,96507.59
2023-01-11T15:21:48.412Z,96508.22
2023-01-11T15:23:20.257Z,96501.97
2023-01-11T15:24:55.713Z,96502.44
2023-01-11T15:26:27.348Z,96502.44
2023-01-11T15:27:59.611Z,96509.94
2023-01-11T15:29:32.071Z,96513.69
2023-01-11T15:31:04.124Z,96513.06
2023-01-11T15:32:36.064Z,96516.81
2023-01-11T15:34:24.653Z,96522.72
2023-01-11T15:36:04.069Z,96520.06
2023-01-11T15:37:48.255Z,96522.72
2023-01-11T15:39:22.998Z,96530.81
2023-01-11T15:40:54.687Z,96521.16
2023-01-11T15:43:02.665Z,96522.25
2023-01-11T15:44:42.134Z,96536.25
2023-01-11T15:46:55.991Z,96530.22
2023-01-11T15:48:31.462Z,96534.41
2023-01-11T15:50:17.335Z,96545.81
2023-01-11T15:52:00.863Z,96543.03
2023-01-11T15:54:04.958Z,96543.28
2023-01-11T15:56:07.264Z,96555.16
2023-01-11T15:57:55.899Z,96557.06
2023-01-11T15:59:50.204Z,96562.38
2023-01-11T16:01:22.916Z,96552.03
2023-01-11T16:03:17.381Z,96558.75
2023-01-11T16:04:50.360Z,96562.19
2023-01-11T16:06:28.134Z,96560.00
2023-01-11T16:08:03.388Z,96564.38
2023-01-11T16:09:52.144Z,96568.28
2023-01-11T16:11:28.637Z,96568.59
2023-01-11T16:13:05.652Z,96572.50
2023-01-11T16:15:00.194Z,96573.41
2023-01-11T16:16:33.367Z,96578.56
2023-01-11T16:18:11.785Z,96583.09
2023-01-11T16:19:43.807Z,96581.22
2023-01-11T16:21:18.040Z,96595.91
2023-01-11T16:22:51.598Z,96587.31
2023-01-11T16:24:26.814Z,96596.69
2023-01-11T16:25:58.683Z,96597.78
2023-01-11T16:27:32.720Z,96599.81
2023-01-11T16:29:07.441Z,96609.97
2023-01-11T16:30:39.601Z,96608.09
2023-01-11T16:32:19.573Z,96613.06
2023-01-11T16:33:52.362Z,96610.41
2023-01-11T16:35:24.892Z,96616.38
2023-01-11T16:36:57.597Z,96615.72
2023-01-11T16:38:29.183Z,96622.13
2023-01-11T16:40:04.472Z,96622.13
2023-01-11T16:41:38.376Z,96619.31
2023-01-11T16:43:16.905Z,96624.00
2023-01-11T16:44:50.272Z,96617.88
2023-01-11T16:46:54.225Z,96623.06
2023-01-11T16:48:26.276Z,96618.22
2023-01-11T16:50:14.719Z,96629.47
2023-01-11T16:51:47.667Z,96637.41
2023-01-11T16:53:20.770Z,96627.59
2023-01-11T16:54:52.389Z,96631.78
2023-01-11T16:56:25.392Z,96639.75
2023-01-11T16:57:58.424Z,96645.66
2023-01-11T16:59:34.874Z,96647.72
2023-01-11T17:01:07.681Z,96644.44
2023-01-11T17:02:42.671Z,96655.47
2023-01-11T17:04:27.196Z,96647.97
2023-01-11T17:06:01.988Z,96651.84
2023-01-11T17:07:33.526Z,96652.66
2023-01-11T17:09:10.877Z,96654.53
2023-01-11T17:10:45.043Z,96665.31
2023-01-11T17:12:19.041Z,96675.00
2023-01-11T17:14:18.849Z,96663.78
2023-01-11T17:15:51.839Z,96682.84
2023-01-11T17:17:28.062Z,96675.03
2023-01-11T17:19:01.519Z,96686.75
2023-01-11T17:20:33.424Z,96687.03
2023-01-11T17:22:06.373Z,96693.44
2023-01-11T17:23:38.008Z,96700.16
2023-01-11T17:25:17.036Z,96691.75
2023-01-11T17:27:13.897Z,96698.16
2023-01-11T17:30:48.426Z,96701.72
2023-01-11T17:32:22.356Z,96696.88
2023-01-11T17:34:00.543Z,96701.09
2023-01-11T17:35:35.154Z,96696.41
2023-01-11T17:37:10.819Z,96701.91
2023-01-11T17:39:03.117Z,96703.75
2023-01-11T17:40:36.235Z,96705.78
2023-01-11T17:42:29.409Z,96710.63
2023-01-11T17:44:19.917Z,96713.59
2023-01-11T17:45:57.101Z,96709.88
2023-01-11T17:47:29.064Z,96717.81
2023-01-11T17:49:00.716Z,96724.69
2023-01-11T17:50:36.083Z,96718.28
2023-01-11T17:52:11.286Z,96731.09
2023-01-11T17:53:43.368Z,96724.06
2023-01-11T17:55:21.186Z,96719.69
2023-01-11T17:56:55.675Z,96720.94
2023-01-11T17:58:36.706Z,96721.09
2023-01-11T18:00:32.452Z,96727.16
2023-01-11T18:02:11.138Z,96725.94
2023-01-11T18:03:43.631Z,96722.50
2023-01-11T18:05:16.567Z,96727.19
2023-01-11T18:06:48.885Z,96728.44
2023-01-11T18:08:21.274Z,96725.78
2023-01-11T18:09:59.007Z,96727.66
2023-01-11T18:11:34.187Z,96729.53
2023-01-11T18:13:05.854Z,96736.09
2023-01-11T18:14:39.477Z,96737.50
2023-01-11T18:16:11.168Z,96728.75
2023-01-11T18:17:44.121Z,96731.88
2023-01-11T18:19:23.876Z,96729.34
2023-01-11T18:20:55.516Z,96734.97
2023-01-11T18:22:30.616Z,96732.34
2023-01-11T18:24:35.937Z,96737.97
2023-01-11T18:26:24.663Z,96745.28
2023-01-11T18:28:21.185Z,96755.13
2023-01-11T18:29:53.330Z,96759.34
2023-01-11T18:31:24.959Z,96750.44
2023-01-11T18:32:57.972Z,96759.81
2023-01-11T18:34:29.952Z,96761.53
2023-01-11T18:36:03.335Z,96764.19
2023-01-11T18:37:35.039Z,96758.41
2023-01-11T18:39:10.045Z,96757.31
2023-01-11T18:40:41.688Z,96757.78
2023-01-11T18:42:16.056Z,96763.41
2023-01-11T18:43:47.663Z,96757.78
2023-01-11T18:45:20.379Z,96770.28
2023-01-11T18:46:52.003Z,96767.28
2023-01-11T18:48:25.031Z,96761.22
2023-01-11T18:49:56.744Z,96757.31
2023-01-11T18:51:29.275Z,96759.97
2023-01-11T18:53:00.962Z,96763.56
2023-01-11T18:54:32.741Z,96762.47
2023-01-11T18:56:04.947Z,96759.81